William P Hobby Airport
KHOU : rendu visible

Aérodrome :











RETROUVEZ-NOUS SUR...

 
LOGIN :

S'inscrire | Disclaimer

   EN    FR    IT 

 









Légende :    VFR   VFR Marginal   IFR   IFR Intensif   IFR Très Intensif
Visi : 
Plafond : 
>= 8 km
>= 3000ft
5 à 8 km
1000 à 3000 ft
1500m à 5 km
500 à 1000 ft
800 à 1500m
200 à 500 ft
< 800m
< 200 ft
Symboles :   Orages  Brouillard  Fortes neiges  Fortes précipitations  Vent > 20 kt






- Altitude de l'aérodrome : 46 ft
- Code IATA : HOU


KHOU - William P Hobby

DERNIER METAR :
  • 260353Z 36007KT 10SM BKN060 BKN080 BKN250 26/18 A2984 RMK AO2 SLP108 T02560183

METARs EXPIRÉS :
  • 260253Z 01007KT 10SM BKN060 BKN080 OVC250 26/19 A2981 RMK AO2 SLP097 T02610189 53018
  • 260153Z 01009KT 10SM BKN070 BKN090 BKN250 27/19 A2979 RMK AO2 SLP093 T02670189
  • 260053Z 34003KT 10SM FEW030 SCT070 SCT090 BKN250 27/18 A2976 RMK AO2 SLP083 T02720183

TAF KHOU
Valide du 26 à 03h jusqu'au 27 à 00h UTC


260312Z 2603/2624 01007KT P6SM BKN060 BKN080 OVC250
FM260900 36005KT P6SM -RA VCTS SCT015 BKN025CB OVC250
TEMPO 2609/2613 VRB30KT 2SM TSRA
FM261500 02006KT P6SM FEW030 OVC080
FM261800 31005KT P6SM SCT030 BKN080
FIR KZHU / Amérique du Nord



MET'MAP, la Météo Aéronautique d'un coup d'oeil ! - Copyright ORBIFLY Décembre 2007 - Disclaimer

ORBIFLY MET'MAP TEAM :

Programmation & Développement : Alexandra Zaïnal
Sur une idée originale de : Baudouin d'Aumeries
Assistance à la programmation : Marc-Olivier Méhu
Soutien technique & logistique : Manuel Goepfert

Contact : metmap@orbifly.com




SOURCES & CREDITS :

   NOAA       Earth
Advisory